createdAt,value
2023-03-21T00:02:28.675Z,10.34
2023-03-21T00:05:31.357Z,10.29
2023-03-21T00:08:33.823Z,10.28
2023-03-21T00:11:36.274Z,10.31
2023-03-21T00:14:39.271Z,10.38
2023-03-21T00:17:44.811Z,10.28
2023-03-21T00:21:29.349Z,10.21
2023-03-21T00:24:23.024Z,10.11
2023-03-21T00:27:53.707Z,10.11
2023-03-21T00:30:47.765Z,10.06
2023-03-21T00:33:50.927Z,9.99
2023-03-21T00:36:53.244Z,9.98
2023-03-21T00:39:55.749Z,9.85
2023-03-21T00:42:58.185Z,9.78
2023-03-21T00:46:03.045Z,9.82
2023-03-21T00:49:05.350Z,9.74
2023-03-21T00:52:18.686Z,9.72
2023-03-21T00:55:26.814Z,9.69
2023-03-21T00:58:29.753Z,9.63
2023-03-21T01:01:32.431Z,9.70
2023-03-21T01:04:34.912Z,9.66
2023-03-21T01:07:37.234Z,9.63
2023-03-21T01:10:42.847Z,9.52
2023-03-21T01:13:53.672Z,9.54
2023-03-21T01:16:59.088Z,9.44
2023-03-21T01:20:01.546Z,9.38
2023-03-21T01:23:03.898Z,9.39
2023-03-21T01:26:07.448Z,9.32
2023-03-21T01:29:09.744Z,9.28
2023-03-21T01:32:12.128Z,9.35
2023-03-21T01:35:14.505Z,9.30
2023-03-21T01:38:16.858Z,9.30
2023-03-21T01:41:33.500Z,9.48
2023-03-21T01:44:55.947Z,9.45
2023-03-21T01:47:58.778Z,9.51
2023-03-21T01:51:13.444Z,9.55
2023-03-21T01:54:33.993Z,9.61
2023-03-21T01:57:51.886Z,9.66
2023-03-21T02:01:02.850Z,9.62
2023-03-21T02:04:15.963Z,9.59
2023-03-21T02:07:24.476Z,9.52
2023-03-21T02:10:32.735Z,9.50
2023-03-21T02:13:36.665Z,9.56
2023-03-21T02:16:59.725Z,9.57
2023-03-21T02:20:31.308Z,9.53
2023-03-21T02:24:03.380Z,9.54
2023-03-21T02:27:34.971Z,9.45
2023-03-21T02:30:52.068Z,9.46
2023-03-21T02:34:12.928Z,9.38
2023-03-21T02:37:44.633Z,9.39
2023-03-21T02:41:19.011Z,9.38
2023-03-21T02:44:47.298Z,9.40
2023-03-21T02:48:27.770Z,9.44
2023-03-21T02:51:35.884Z,9.37
2023-03-21T02:54:48.060Z,9.40
2023-03-21T02:57:59.252Z,9.31
2023-03-21T03:01:07.098Z,9.52
2023-03-21T03:04:27.402Z,9.41
2023-03-21T03:07:48.770Z,9.33
2023-03-21T03:11:17.179Z,9.24
2023-03-21T03:17:59.805Z,9.20
2023-03-21T03:21:52.001Z,9.03
2023-03-21T03:25:18.541Z,8.99
2023-03-21T03:28:33.220Z,8.93
2023-03-21T03:31:51.649Z,9.11
2023-03-21T03:34:58.947Z,9.13
2023-03-21T03:38:08.195Z,9.14
2023-03-21T03:41:19.861Z,9.17
2023-03-21T03:44:28.630Z,9.16
2023-03-21T03:47:56.360Z,9.09
2023-03-21T03:51:22.255Z,9.05
2023-03-21T03:54:47.777Z,9.40
2023-03-21T03:57:50.739Z,9.42
2023-03-21T04:00:56.205Z,9.44
2023-03-21T04:04:12.154Z,9.38
2023-03-21T04:07:16.495Z,9.28
2023-03-21T04:10:21.248Z,9.30
2023-03-21T04:13:23.761Z,9.11
2023-03-21T04:16:43.842Z,8.96
2023-03-21T04:19:46.751Z,9.05
2023-03-21T04:22:49.219Z,9.04
2023-03-21T04:25:56.748Z,9.14
2023-03-21T04:29:06.712Z,9.14
2023-03-21T04:32:29.357Z,9.12
2023-03-21T04:35:42.673Z,9.14
2023-03-21T04:38:48.627Z,9.06
2023-03-21T04:41:52.300Z,9.08
2023-03-21T04:44:54.570Z,9.05
2023-03-21T04:47:59.126Z,8.87
2023-03-21T04:51:01.849Z,8.85
2023-03-21T04:54:05.992Z,8.84
2023-03-21T04:57:08.707Z,8.90
2023-03-21T05:00:13.941Z,8.92
2023-03-21T05:03:19.972Z,9.17
2023-03-21T05:06:23.822Z,9.26
2023-03-21T05:09:26.428Z,9.38
2023-03-21T05:12:28.845Z,9.70
2023-03-21T05:15:31.276Z,9.83
2023-03-21T05:18:38.772Z,9.75
2023-03-21T05:21:47.957Z,10.02
2023-03-21T05:24:56.897Z,9.94
2023-03-21T05:28:21.184Z,10.03
2023-03-21T05:31:24.398Z,10.06
2023-03-21T05:34:33.772Z,9.98
2023-03-21T05:37:38.447Z,10.04
2023-03-21T05:40:46.859Z,10.58
2023-03-21T05:43:49.539Z,10.74
2023-03-21T05:46:51.954Z,10.53
2023-03-21T05:49:57.938Z,10.55
2023-03-21T05:53:00.910Z,10.66
2023-03-21T05:56:04.859Z,10.64
2023-03-21T05:59:36.391Z,10.71
2023-03-21T06:02:40.153Z,10.91
2023-03-21T06:05:48.045Z,11.00
2023-03-21T06:08:57.049Z,11.05
2023-03-21T06:12:00.240Z,10.87
2023-03-21T06:15:16.682Z,10.97
2023-03-21T06:18:48.085Z,11.01
2023-03-21T06:22:14.688Z,10.92
2023-03-21T06:25:17.627Z,10.97
2023-03-21T06:28:23.004Z,11.16
2023-03-21T06:31:26.684Z,11.54
2023-03-21T06:34:36.112Z,12.43
2023-03-21T06:37:39.621Z,12.60
2023-03-21T06:40:41.978Z,13.59
2023-03-21T06:43:45.369Z,13.98
2023-03-21T06:46:48.032Z,14.27
2023-03-21T06:49:53.819Z,14.74
2023-03-21T06:52:57.761Z,14.83
2023-03-21T06:56:00.340Z,15.24
2023-03-21T06:59:02.849Z,15.70
2023-03-21T07:02:23.719Z,15.65
2023-03-21T07:05:41.111Z,15.51
2023-03-21T07:08:43.523Z,15.55
2023-03-21T07:11:46.115Z,14.59
2023-03-21T07:14:49.698Z,13.77
2023-03-21T07:17:53.148Z,13.45
2023-03-21T07:20:55.731Z,13.40
2023-03-21T07:23:58.779Z,14.25
2023-03-21T07:27:04.116Z,13.99
2023-03-21T07:30:07.281Z,14.96
2023-03-21T07:33:09.942Z,15.99
2023-03-21T07:36:15.477Z,16.33
2023-03-21T07:39:19.994Z,16.67
2023-03-21T07:42:22.368Z,17.42
2023-03-21T07:45:27.008Z,17.16
2023-03-21T07:48:33.639Z,17.02
2023-03-21T07:51:37.373Z,17.54
2023-03-21T07:54:39.811Z,17.65
2023-03-21T07:57:42.081Z,18.43
2023-03-21T08:00:46.836Z,18.80
2023-03-21T08:03:51.499Z,19.16
2023-03-21T08:06:53.941Z,18.02
2023-03-21T08:09:56.432Z,18.53
2023-03-21T08:12:59.937Z,18.74
2023-03-21T08:16:03.006Z,18.53
2023-03-21T08:19:05.547Z,19.19
2023-03-21T08:22:07.809Z,19.33
2023-03-21T08:25:14.021Z,19.23
2023-03-21T08:28:16.356Z,19.74
2023-03-21T08:31:18.854Z,19.88
2023-03-21T08:34:23.166Z,20.49
2023-03-21T08:37:26.124Z,21.08
2023-03-21T08:40:28.531Z,20.67
2023-03-21T08:43:30.924Z,20.76
2023-03-21T08:46:33.811Z,20.11
2023-03-21T08:49:36.782Z,19.84
2023-03-21T08:52:39.153Z,19.22
2023-03-21T08:55:41.414Z,21.25
2023-03-21T08:58:44.830Z,21.77
2023-03-21T09:01:47.615Z,21.79
2023-03-21T09:04:50.170Z,21.74
2023-03-21T09:07:52.994Z,22.08
2023-03-21T09:10:56.268Z,21.96
2023-03-21T09:13:58.576Z,22.20
2023-03-21T09:17:01.511Z,22.20
2023-03-21T09:20:11.448Z,20.88
2023-03-21T09:23:15.485Z,22.14
2023-03-21T09:26:23.177Z,22.68
2023-03-21T09:29:27.183Z,23.15
2023-03-21T09:32:29.815Z,22.90
2023-03-21T09:35:33.047Z,24.28
2023-03-21T09:38:39.830Z,21.42
2023-03-21T09:42:01.342Z,20.58
2023-03-21T09:45:17.686Z,22.26
2023-03-21T09:48:36.070Z,23.89
2023-03-21T09:51:52.943Z,20.21
2023-03-21T09:54:56.412Z,21.76
2023-03-21T09:58:26.187Z,23.06
2023-03-21T10:01:34.417Z,19.98
2023-03-21T10:04:38.605Z,20.93
2023-03-21T10:07:47.762Z,22.98
2023-03-21T10:10:53.564Z,22.05
2023-03-21T10:13:59.669Z,24.07
2023-03-21T10:17:20.689Z,22.54
2023-03-21T10:20:27.486Z,20.93
2023-03-21T10:23:30.271Z,19.54
2023-03-21T10:26:32.698Z,20.69
2023-03-21T10:29:43.387Z,21.38
2023-03-21T10:32:46.058Z,20.29
2023-03-21T10:36:02.609Z,20.14
2023-03-21T10:39:13.634Z,20.88
2023-03-21T10:42:24.773Z,20.73
2023-03-21T10:45:27.176Z,20.27
2023-03-21T10:48:36.499Z,20.07
2023-03-21T10:51:39.946Z,20.53
2023-03-21T10:54:42.581Z,20.46
2023-03-21T10:57:47.502Z,19.47
2023-03-21T11:00:58.418Z,18.46
2023-03-21T11:04:06.956Z,19.39
2023-03-21T11:07:14.555Z,19.32
2023-03-21T11:10:29.326Z,18.59
2023-03-21T11:13:38.084Z,17.76
2023-03-21T11:16:46.230Z,18.29
2023-03-21T11:19:58.990Z,17.77
2023-03-21T11:23:03.445Z,17.53
2023-03-21T11:26:11.779Z,17.62
2023-03-21T11:29:45.697Z,17.50
2023-03-21T11:32:54.986Z,17.99
2023-03-21T11:36:19.217Z,18.09
2023-03-21T11:39:33.773Z,19.05
2023-03-21T11:42:51.946Z,19.53
2023-03-21T11:46:05.503Z,19.90
2023-03-21T11:49:09.760Z,19.88
2023-03-21T11:52:32.334Z,19.78
2023-03-21T11:55:34.885Z,19.64
2023-03-21T11:59:11.764Z,19.88
2023-03-21T12:02:27.395Z,19.80
2023-03-21T12:05:34.372Z,19.06
2023-03-21T12:08:45.922Z,19.23
2023-03-21T12:12:03.117Z,19.52
2023-03-21T12:15:24.283Z,19.40
2023-03-21T12:18:58.660Z,19.35
2023-03-21T12:22:19.555Z,19.42
2023-03-21T12:25:46.224Z,18.90
2023-03-21T12:29:17.284Z,18.94
2023-03-21T12:32:25.864Z,19.36
2023-03-21T12:35:33.528Z,18.60
2023-03-21T12:38:38.800Z,18.48
2023-03-21T12:41:48.969Z,18.45
2023-03-21T12:45:00.656Z,18.32
2023-03-21T12:48:22.595Z,18.16
2023-03-21T12:51:32.579Z,17.74
2023-03-21T12:54:43.872Z,17.21
2023-03-21T12:58:03.075Z,17.13
2023-03-21T13:01:06.802Z,17.14
2023-03-21T13:04:27.213Z,16.99
2023-03-21T13:07:37.190Z,17.30
2023-03-21T13:10:42.230Z,17.78
2023-03-21T13:13:49.803Z,18.42
2023-03-21T13:16:56.191Z,18.78
2023-03-21T13:20:20.106Z,18.97
2023-03-21T13:23:24.097Z,19.39
2023-03-21T13:26:57.819Z,19.30
2023-03-21T13:30:02.479Z,19.15
2023-03-21T13:33:14.294Z,18.73
2023-03-21T13:36:26.045Z,18.90
2023-03-21T13:39:29.648Z,18.95
2023-03-21T13:42:33.770Z,19.05
2023-03-21T13:45:51.726Z,19.22
2023-03-21T13:48:58.829Z,18.97
2023-03-21T13:52:26.356Z,18.45
2023-03-21T13:55:30.934Z,17.99
2023-03-21T13:58:50.772Z,18.15
2023-03-21T14:02:23.711Z,18.24
2023-03-21T14:05:28.757Z,18.19
2023-03-21T14:08:37.525Z,18.14
2023-03-21T14:11:46.478Z,18.00
2023-03-21T14:15:14.173Z,18.15
2023-03-21T14:18:34.987Z,18.37
2023-03-21T14:21:37.889Z,18.60
2023-03-21T14:24:41.312Z,18.38
2023-03-21T14:27:48.315Z,18.51
2023-03-21T14:30:56.498Z,18.66
2023-03-21T14:34:01.892Z,18.45
2023-03-21T14:37:10.746Z,18.22
2023-03-21T14:40:23.088Z,18.42
2023-03-21T14:43:26.275Z,18.60
2023-03-21T14:46:28.661Z,18.53
2023-03-21T14:49:33.671Z,18.52
2023-03-21T14:52:37.229Z,18.34
2023-03-21T14:55:50.644Z,18.48
2023-03-21T14:58:54.056Z,18.40
2023-03-21T15:01:56.521Z,18.36
2023-03-21T15:05:09.876Z,18.18
2023-03-21T15:08:12.125Z,18.89
2023-03-21T15:11:15.454Z,19.68
2023-03-21T15:14:21.087Z,20.27
2023-03-21T15:17:24.758Z,19.88
2023-03-21T15:20:31.990Z,20.47
2023-03-21T15:23:40.085Z,20.38
2023-03-21T15:26:47.345Z,20.41
2023-03-21T15:29:54.326Z,19.90
2023-03-21T15:32:58.906Z,20.10
2023-03-21T15:36:01.321Z,19.99
2023-03-21T15:39:15.876Z,19.07
2023-03-21T15:42:29.909Z,19.46
2023-03-21T15:45:32.311Z,18.65
2023-03-21T15:48:35.059Z,19.55
2023-03-21T15:51:38.215Z,19.23
2023-03-21T15:54:56.963Z,18.91
2023-03-21T15:58:04.818Z,17.92
2023-03-21T16:01:14.956Z,17.07
2023-03-21T16:04:21.167Z,17.54
2023-03-21T16:07:24.765Z,16.86
2023-03-21T16:10:39.478Z,17.41
2023-03-21T16:13:41.997Z,17.07
2023-03-21T16:16:45.946Z,16.17
2023-03-21T16:19:48.256Z,15.82
2023-03-21T16:22:51.167Z,15.63
2023-03-21T16:25:57.879Z,15.49
2023-03-21T16:29:00.329Z,15.34
2023-03-21T16:32:06.247Z,15.26
2023-03-21T16:35:09.246Z,15.12
2023-03-21T16:38:13.239Z,15.01
2023-03-21T16:41:16.390Z,14.92
2023-03-21T16:44:19.639Z,14.85
2023-03-21T16:47:23.887Z,14.74
2023-03-21T16:50:32.268Z,14.72
2023-03-21T16:53:34.620Z,14.64
2023-03-21T16:56:40.418Z,14.57
2023-03-21T16:59:42.857Z,14.42
2023-03-21T17:02:45.215Z,14.32
2023-03-21T17:05:47.891Z,14.27
2023-03-21T17:08:51.019Z,14.17
2023-03-21T17:11:53.432Z,14.09
2023-03-21T17:14:55.744Z,13.98
2023-03-21T17:17:58.279Z,13.91
2023-03-21T17:21:00.820Z,13.92
2023-03-21T17:24:03.126Z,13.87
2023-03-21T17:27:08.098Z,13.79
2023-03-21T17:30:34.871Z,13.63
2023-03-21T17:33:37.161Z,13.48
2023-03-21T17:36:42.258Z,13.52
2023-03-21T17:39:46.170Z,13.49
2023-03-21T17:42:49.664Z,13.38
2023-03-21T17:45:52.258Z,13.34
2023-03-21T17:48:54.930Z,13.20
2023-03-21T17:51:57.215Z,13.15
2023-03-21T17:54:59.443Z,12.92
2023-03-21T17:58:02.227Z,12.88
2023-03-21T18:01:04.741Z,12.72
2023-03-21T18:04:07.376Z,12.59
2023-03-21T18:07:18.490Z,12.54
2023-03-21T18:10:27.483Z,12.45
2023-03-21T18:13:29.978Z,12.34
2023-03-21T18:16:32.581Z,12.41
2023-03-21T18:19:38.365Z,12.28
2023-03-21T18:22:40.792Z,12.40
2023-03-21T18:25:43.225Z,12.46
2023-03-21T18:28:45.729Z,12.31
2023-03-21T18:32:04.412Z,12.29
2023-03-21T18:35:10.389Z,12.25
2023-03-21T18:38:12.670Z,12.18
2023-03-21T18:41:18.668Z,12.10
2023-03-21T18:44:23.329Z,12.07
2023-03-21T18:47:27.296Z,12.05
2023-03-21T18:50:29.627Z,12.06
2023-03-21T18:53:31.957Z,12.06
2023-03-21T18:57:27.464Z,12.07
2023-03-21T19:00:00.209Z,12.00
2023-03-21T19:03:18.732Z,11.95
2023-03-21T19:06:23.821Z,11.81
2023-03-21T19:09:31.380Z,11.82
2023-03-21T19:12:34.136Z,11.67
2023-03-21T19:15:36.827Z,11.60
2023-03-21T19:18:54.128Z,11.50
2023-03-21T19:21:58.851Z,11.38
2023-03-21T19:25:01.154Z,11.19
2023-03-21T19:28:03.996Z,11.24
2023-03-21T19:31:08.243Z,11.21
2023-03-21T19:34:11.216Z,11.25
2023-03-21T19:37:13.644Z,11.25
2023-03-21T19:40:16.236Z,11.32
2023-03-21T19:43:32.320Z,11.21
2023-03-21T19:46:36.068Z,11.17
2023-03-21T19:50:17.392Z,11.13
2023-03-21T19:53:03.138Z,11.05
2023-03-21T19:56:17.826Z,10.98
2023-03-21T19:59:22.945Z,10.99
2023-03-21T20:02:35.600Z,11.06
2023-03-21T20:05:38.495Z,10.91
2023-03-21T20:12:05.741Z,10.80
2023-03-21T20:15:17.171Z,10.66
2023-03-21T20:18:24.055Z,10.55
2023-03-21T20:21:33.801Z,10.62
2023-03-21T20:24:43.342Z,10.49
2023-03-21T20:27:45.616Z,10.49
2023-03-21T20:30:54.133Z,10.72
2023-03-21T20:33:57.022Z,10.62
2023-03-21T20:36:59.430Z,10.45
2023-03-21T20:40:02.192Z,10.20
2023-03-21T20:43:32.072Z,10.10
2023-03-21T20:46:28.596Z,10.01
2023-03-21T20:49:31.605Z,9.80
2023-03-21T20:52:57.925Z,9.71
2023-03-21T20:55:57.707Z,9.63
2023-03-21T20:59:15.268Z,9.61
2023-03-21T21:02:20.010Z,9.65
2023-03-21T21:05:28.110Z,9.68
2023-03-21T21:08:32.084Z,9.81
2023-03-21T21:14:56.776Z,9.67
2023-03-21T21:18:07.802Z,9.77
2023-03-21T21:21:10.623Z,9.86
2023-03-21T21:24:14.564Z,9.83
2023-03-21T21:27:17.359Z,9.82
2023-03-21T21:30:19.690Z,9.84
2023-03-21T21:33:22.855Z,9.80
2023-03-21T21:36:25.216Z,9.78
2023-03-21T21:39:27.736Z,9.85
2023-03-21T21:42:30.174Z,9.93
2023-03-21T21:45:32.806Z,9.89
2023-03-21T21:48:35.230Z,9.77
2023-03-21T21:51:38.191Z,9.59
2023-03-21T21:54:45.656Z,9.52
2023-03-21T21:57:50.581Z,9.38
2023-03-21T22:00:53.742Z,9.34
2023-03-21T22:03:57.649Z,9.71
2023-03-21T22:06:59.983Z,9.55
2023-03-21T22:10:02.327Z,9.66
2023-03-21T22:13:04.840Z,9.63
2023-03-21T22:16:07.747Z,9.71
2023-03-21T22:19:10.263Z,9.52
2023-03-21T22:22:12.592Z,9.42
2023-03-21T22:25:16.426Z,9.24
2023-03-21T22:28:22.104Z,9.20
2023-03-21T22:31:26.127Z,9.50
2023-03-21T22:34:28.555Z,9.47
2023-03-21T22:37:33.112Z,9.38
2023-03-21T22:40:35.950Z,9.33
2023-03-21T22:43:38.299Z,9.14
2023-03-21T22:46:40.741Z,8.94
2023-03-21T22:49:45.322Z,8.85
2023-03-21T22:52:47.563Z,8.71
2023-03-21T22:55:50.045Z,8.56
2023-03-21T22:58:52.707Z,8.65
2023-03-21T23:01:55.326Z,8.88
2023-03-21T23:04:57.578Z,8.92
2023-03-21T23:07:59.848Z,8.82
2023-03-21T23:11:09.401Z,8.62
2023-03-21T23:14:13.766Z,8.49
2023-03-21T23:17:16.441Z,8.39
2023-03-21T23:20:19.296Z,8.12
2023-03-21T23:23:21.500Z,8.21
2023-03-21T23:26:24.274Z,8.41
2023-03-21T23:29:26.842Z,8.57
2023-03-21T23:32:29.091Z,8.49
2023-03-21T23:35:35.574Z,8.47
2023-03-21T23:38:38.256Z,8.49
2023-03-21T23:41:42.812Z,8.38
2023-03-21T23:44:45.096Z,8.33
2023-03-21T23:47:47.755Z,8.27
2023-03-21T23:50:50.181Z,8.04
2023-03-21T23:53:53.451Z,8.13
2023-03-21T23:56:55.942Z,8.15
2023-03-21T23:59:58.381Z,8.01
